createdAt,value
2022-07-29T00:01:48.340Z,19.67
2022-07-29T00:04:18.051Z,19.64
2022-07-29T00:06:48.192Z,19.63
2022-07-29T00:09:18.564Z,19.62
2022-07-29T00:11:47.539Z,19.60
2022-07-29T00:14:16.915Z,19.58
2022-07-29T00:16:46.211Z,19.57
2022-07-29T00:19:15.229Z,19.54
2022-07-29T00:21:44.217Z,19.51
2022-07-29T00:24:13.623Z,19.49
2022-07-29T00:26:44.167Z,19.48
2022-07-29T00:32:02.426Z,19.44
2022-07-29T00:34:48.847Z,19.41
2022-07-29T00:37:17.940Z,19.41
2022-07-29T00:39:46.812Z,19.41
2022-07-29T00:42:17.429Z,19.41
2022-07-29T00:44:46.664Z,19.41
2022-07-29T00:47:15.732Z,19.40
2022-07-29T00:49:45.221Z,19.40
2022-07-29T00:52:17.205Z,19.40
2022-07-29T00:54:46.904Z,19.40
2022-07-29T00:57:17.390Z,19.39
2022-07-29T00:59:46.427Z,19.39
2022-07-29T01:02:15.689Z,19.39
2022-07-29T01:04:47.908Z,19.38
2022-07-29T01:07:18.655Z,19.39
2022-07-29T01:09:49.358Z,19.38
2022-07-29T01:12:25.059Z,19.37
2022-07-29T01:14:56.164Z,19.36
2022-07-29T01:17:32.770Z,19.36
2022-07-29T01:20:11.495Z,19.36
2022-07-29T01:23:41.673Z,19.36
2022-07-29T01:26:49.051Z,19.37
2022-07-29T01:29:35.994Z,19.46
2022-07-29T01:32:28.051Z,19.50
2022-07-29T01:35:06.617Z,19.48
2022-07-29T01:37:45.360Z,19.46
2022-07-29T01:40:24.269Z,19.45
2022-07-29T01:42:58.352Z,19.42
2022-07-29T01:45:40.824Z,19.37
2022-07-29T01:48:21.996Z,19.35
2022-07-29T01:51:00.686Z,19.32
2022-07-29T01:53:38.372Z,19.27
2022-07-29T01:56:12.324Z,19.31
2022-07-29T01:58:45.418Z,19.25
2022-07-29T02:01:18.323Z,19.19
2022-07-29T02:03:50.158Z,19.14
2022-07-29T02:06:25.436Z,19.14
2022-07-29T02:08:55.841Z,19.12
2022-07-29T02:11:25.003Z,19.09
2022-07-29T02:13:59.194Z,19.06
2022-07-29T02:16:34.102Z,19.03
2022-07-29T02:19:06.710Z,19.02
2022-07-29T02:21:38.133Z,18.97
2022-07-29T02:24:09.293Z,18.92
2022-07-29T02:26:41.644Z,18.90
2022-07-29T02:29:14.046Z,18.86
2022-07-29T02:31:48.045Z,18.83
2022-07-29T02:34:20.269Z,18.79
2022-07-29T02:36:50.610Z,18.78
2022-07-29T02:39:21.200Z,18.74
2022-07-29T02:41:54.431Z,18.69
2022-07-29T02:44:32.597Z,18.66
2022-07-29T02:47:15.781Z,18.63
2022-07-29T02:49:57.184Z,18.61
2022-07-29T02:52:33.878Z,18.57
2022-07-29T02:55:12.205Z,18.51
2022-07-29T02:57:53.827Z,18.47
2022-07-29T03:00:29.729Z,18.40
2022-07-29T03:03:06.193Z,18.37
2022-07-29T03:05:36.310Z,18.32
2022-07-29T03:08:12.600Z,18.27
2022-07-29T03:10:46.675Z,18.22
2022-07-29T03:13:17.701Z,18.19
2022-07-29T03:15:48.140Z,18.14
2022-07-29T03:18:19.150Z,18.10
2022-07-29T03:20:48.242Z,18.04
2022-07-29T03:23:22.543Z,17.99
2022-07-29T03:25:52.746Z,17.94
2022-07-29T03:28:22.120Z,17.89
2022-07-29T03:30:51.890Z,17.85
2022-07-29T03:33:22.196Z,17.80
2022-07-29T03:35:51.189Z,17.76
2022-07-29T03:38:20.723Z,17.70
2022-07-29T03:40:56.245Z,17.66
2022-07-29T03:43:27.752Z,17.60
2022-07-29T03:45:59.157Z,17.56
2022-07-29T03:48:34.969Z,17.51
2022-07-29T03:51:04.101Z,17.47
2022-07-29T03:53:33.546Z,17.43
2022-07-29T03:56:05.110Z,17.37
2022-07-29T03:58:35.494Z,17.33
2022-07-29T04:01:04.899Z,17.28
2022-07-29T04:03:37.069Z,17.25
2022-07-29T04:06:08.677Z,17.20
2022-07-29T04:08:37.692Z,17.18
2022-07-29T04:11:07.904Z,17.14
2022-07-29T04:13:39.551Z,17.09
2022-07-29T04:16:08.776Z,17.08
2022-07-29T04:18:38.962Z,17.02
2022-07-29T04:21:07.853Z,16.99
2022-07-29T04:23:36.802Z,16.94
2022-07-29T04:26:22.982Z,16.92
2022-07-29T04:28:51.789Z,16.89
2022-07-29T04:31:25.527Z,16.86
2022-07-29T04:33:56.163Z,16.83
2022-07-29T04:36:28.526Z,16.79
2022-07-29T04:38:58.818Z,16.77
2022-07-29T04:41:33.260Z,16.74
2022-07-29T04:44:12.226Z,16.73
2022-07-29T04:46:41.656Z,16.73
2022-07-29T04:49:12.031Z,16.75
2022-07-29T04:51:40.960Z,16.74
2022-07-29T04:54:10.040Z,16.74
2022-07-29T04:56:39.052Z,16.76
2022-07-29T04:59:08.016Z,16.77
2022-07-29T05:01:37.114Z,16.79
2022-07-29T05:04:06.249Z,16.80
2022-07-29T05:06:36.712Z,16.83
2022-07-29T05:09:05.918Z,16.85
2022-07-29T05:11:34.797Z,16.88
2022-07-29T05:14:03.848Z,16.90
2022-07-29T05:16:32.795Z,16.92
2022-07-29T05:19:01.869Z,16.97
2022-07-29T05:21:30.850Z,17.02
2022-07-29T05:24:01.329Z,17.07
2022-07-29T05:26:30.356Z,17.13
2022-07-29T05:28:59.211Z,17.20
2022-07-29T05:31:28.368Z,17.27
2022-07-29T05:33:57.385Z,17.35
2022-07-29T05:36:26.233Z,17.41
2022-07-29T05:38:55.286Z,17.48
2022-07-29T05:41:26.589Z,17.56
2022-07-29T05:43:55.608Z,17.67
2022-07-29T05:46:24.552Z,17.76
2022-07-29T05:48:53.576Z,17.82
2022-07-29T05:51:22.774Z,17.87
2022-07-29T05:53:51.757Z,17.96
2022-07-29T05:56:20.694Z,18.04
2022-07-29T05:58:51.045Z,18.14
2022-07-29T06:01:20.912Z,18.28
2022-07-29T06:03:49.979Z,18.44
2022-07-29T06:06:20.076Z,18.65
2022-07-29T06:08:49.094Z,18.83
2022-07-29T06:11:18.106Z,19.03
2022-07-29T06:13:47.524Z,19.23
2022-07-29T06:16:29.811Z,19.43
2022-07-29T06:18:59.337Z,19.66
2022-07-29T06:21:28.355Z,19.85
2022-07-29T06:23:57.670Z,20.01
2022-07-29T06:26:30.274Z,20.23
2022-07-29T06:29:00.437Z,20.40
2022-07-29T06:31:30.769Z,20.51
2022-07-29T06:33:59.721Z,20.69
2022-07-29T06:36:29.698Z,20.87
2022-07-29T06:38:59.000Z,21.05
2022-07-29T06:41:28.281Z,21.27
2022-07-29T06:43:57.213Z,21.51
2022-07-29T06:46:26.210Z,21.75
2022-07-29T06:48:57.748Z,21.99
2022-07-29T06:51:28.444Z,22.20
2022-07-29T06:56:38.354Z,22.71
2022-07-29T06:59:11.856Z,22.86
2022-07-29T07:01:43.697Z,23.06
2022-07-29T07:04:15.246Z,23.32
2022-07-29T07:06:44.975Z,23.52
2022-07-29T07:09:13.951Z,23.70
2022-07-29T07:11:42.877Z,23.98
2022-07-29T07:14:11.809Z,24.32
2022-07-29T07:16:40.764Z,24.54
2022-07-29T07:19:09.758Z,24.79
2022-07-29T07:21:40.108Z,24.98
2022-07-29T07:24:09.557Z,25.21
2022-07-29T07:26:40.377Z,25.28
2022-07-29T07:29:09.277Z,25.43
2022-07-29T07:31:39.667Z,25.61
2022-07-29T07:34:08.555Z,25.90
2022-07-29T07:36:38.900Z,26.15
2022-07-29T07:39:07.993Z,26.47
2022-07-29T07:41:37.131Z,26.64
2022-07-29T07:44:07.021Z,26.85
2022-07-29T07:46:35.922Z,26.94
2022-07-29T07:49:07.414Z,27.16
2022-07-29T07:51:36.374Z,27.30
2022-07-29T07:54:06.869Z,27.39
2022-07-29T07:56:36.206Z,27.62
2022-07-29T07:59:05.326Z,27.81
2022-07-29T08:01:47.830Z,27.75
2022-07-29T08:04:27.511Z,27.43
2022-07-29T08:06:57.826Z,27.31
2022-07-29T08:09:30.776Z,27.21
2022-07-29T08:12:03.337Z,27.30
2022-07-29T08:14:32.521Z,27.54
2022-07-29T08:17:02.409Z,28.01
2022-07-29T08:19:31.405Z,28.33
2022-07-29T08:22:00.392Z,28.45
2022-07-29T08:24:48.189Z,28.73
2022-07-29T08:27:41.791Z,28.99
2022-07-29T08:30:07.614Z,29.26
2022-07-29T08:32:53.238Z,29.45
2022-07-29T08:35:24.127Z,29.80
2022-07-29T08:37:53.427Z,30.22
2022-07-29T08:40:30.775Z,30.56
2022-07-29T08:43:08.379Z,30.98
2022-07-29T08:45:47.448Z,31.28
2022-07-29T08:48:20.031Z,31.70
2022-07-29T08:50:54.426Z,32.07
2022-07-29T08:53:27.383Z,32.26
2022-07-29T08:55:59.571Z,32.21
2022-07-29T08:58:36.822Z,32.18
2022-07-29T09:01:12.222Z,32.49
2022-07-29T09:03:43.510Z,32.49
2022-07-29T09:06:15.850Z,32.68
2022-07-29T09:08:45.794Z,32.54
2022-07-29T09:11:16.858Z,32.33
2022-07-29T09:13:45.950Z,32.50
2022-07-29T09:16:31.673Z,32.98
2022-07-29T09:19:26.826Z,33.35
2022-07-29T09:22:02.967Z,33.55
2022-07-29T09:24:43.236Z,33.59
2022-07-29T09:27:23.672Z,33.56
2022-07-29T09:30:01.319Z,33.87
2022-07-29T09:32:30.901Z,33.96
2022-07-29T09:35:21.222Z,33.87
2022-07-29T09:37:51.096Z,34.02
2022-07-29T09:40:21.924Z,33.98
2022-07-29T09:42:53.928Z,34.02
2022-07-29T09:45:31.360Z,34.08
2022-07-29T09:48:03.927Z,34.12
2022-07-29T09:50:40.958Z,33.99
2022-07-29T09:53:11.394Z,33.91
2022-07-29T09:55:51.866Z,33.96
2022-07-29T09:58:24.448Z,33.83
2022-07-29T10:00:55.775Z,33.76
2022-07-29T10:03:26.930Z,33.32
2022-07-29T10:06:10.794Z,33.08
2022-07-29T10:08:40.552Z,33.18
2022-07-29T10:11:15.840Z,33.50
2022-07-29T10:13:48.823Z,33.58
2022-07-29T10:16:19.060Z,33.31
2022-07-29T10:18:48.293Z,33.22
2022-07-29T10:21:35.600Z,33.38
2022-07-29T10:24:14.790Z,33.24
2022-07-29T10:26:47.062Z,32.94
2022-07-29T10:29:17.307Z,32.97
2022-07-29T10:31:59.745Z,32.93
2022-07-29T10:34:48.747Z,33.01
2022-07-29T10:37:35.382Z,33.32
2022-07-29T10:40:37.534Z,33.46
2022-07-29T10:43:22.610Z,33.89
2022-07-29T10:45:59.194Z,33.73
2022-07-29T10:48:28.893Z,33.76
2022-07-29T10:51:01.516Z,33.99
2022-07-29T10:53:51.046Z,34.34
2022-07-29T10:56:28.227Z,34.47
2022-07-29T10:59:32.402Z,34.60
2022-07-29T11:02:46.764Z,34.98
2022-07-29T11:05:20.191Z,35.34
2022-07-29T11:08:28.208Z,35.52
2022-07-29T11:11:33.100Z,35.88
2022-07-29T11:14:04.367Z,36.14
2022-07-29T11:17:06.073Z,36.37
2022-07-29T11:19:44.781Z,36.74
2022-07-29T11:22:34.844Z,36.97
2022-07-29T11:25:17.895Z,37.10
2022-07-29T11:27:47.503Z,37.20
2022-07-29T11:30:17.575Z,37.21
2022-07-29T11:32:48.621Z,37.34
2022-07-29T11:35:37.230Z,37.35
2022-07-29T11:38:28.352Z,37.20
2022-07-29T11:41:25.183Z,37.49
2022-07-29T11:43:55.919Z,37.83
2022-07-29T11:46:46.183Z,38.11
2022-07-29T11:49:21.872Z,38.28
2022-07-29T11:51:55.676Z,38.40
2022-07-29T11:54:28.174Z,38.43
2022-07-29T11:56:57.457Z,38.64
2022-07-29T11:59:33.121Z,38.74
2022-07-29T12:02:33.355Z,38.98
2022-07-29T12:04:53.960Z,39.02
2022-07-29T12:07:34.830Z,38.97
2022-07-29T12:10:06.309Z,38.68
2022-07-29T12:12:35.919Z,38.42
2022-07-29T12:15:18.365Z,38.42
2022-07-29T12:17:50.258Z,38.71
2022-07-29T12:20:26.781Z,38.98
2022-07-29T12:22:58.797Z,39.08
2022-07-29T12:25:35.193Z,39.19
2022-07-29T12:28:06.643Z,39.34
2022-07-29T12:30:42.084Z,39.30
2022-07-29T12:33:20.371Z,39.21
2022-07-29T12:36:06.232Z,38.75
2022-07-29T12:38:39.712Z,37.75
2022-07-29T12:41:09.493Z,37.66
2022-07-29T12:43:38.633Z,37.57
2022-07-29T12:46:15.630Z,37.85
2022-07-29T12:48:47.344Z,38.20
2022-07-29T12:51:17.825Z,38.58
2022-07-29T12:54:07.843Z,38.94
2022-07-29T12:56:45.149Z,38.94
2022-07-29T12:59:16.410Z,39.02
2022-07-29T13:01:47.978Z,39.19
2022-07-29T13:04:27.990Z,39.29
2022-07-29T13:07:06.456Z,39.50
2022-07-29T13:09:44.272Z,39.62
2022-07-29T13:12:15.077Z,39.19
2022-07-29T13:14:46.340Z,38.94
2022-07-29T13:17:17.010Z,38.78
2022-07-29T13:19:48.299Z,38.73
2022-07-29T13:22:20.387Z,38.59
2022-07-29T13:24:53.724Z,38.34
2022-07-29T13:27:25.321Z,38.20
2022-07-29T13:29:57.499Z,38.02
2022-07-29T13:32:28.541Z,37.82
2022-07-29T13:34:58.976Z,37.68
2022-07-29T13:37:30.689Z,37.51
2022-07-29T13:40:01.424Z,37.30
2022-07-29T13:42:30.725Z,37.03
2022-07-29T13:45:00.230Z,36.86
2022-07-29T13:47:32.206Z,36.72
2022-07-29T13:50:02.598Z,36.64
2022-07-29T13:52:35.479Z,36.48
2022-07-29T13:55:07.221Z,36.06
2022-07-29T13:57:36.469Z,35.75
2022-07-29T14:00:06.668Z,35.55
2022-07-29T14:02:35.828Z,35.35
2022-07-29T14:05:08.311Z,35.12
2022-07-29T14:07:38.046Z,34.74
2022-07-29T14:10:09.444Z,34.06
2022-07-29T14:12:38.411Z,33.51
2022-07-29T14:15:08.583Z,33.02
2022-07-29T14:17:37.498Z,32.66
2022-07-29T14:20:08.042Z,32.17
2022-07-29T14:22:41.825Z,31.72
2022-07-29T14:25:14.885Z,31.06
2022-07-29T14:27:45.321Z,30.62
2022-07-29T14:30:15.443Z,30.20
2022-07-29T14:32:44.341Z,29.87
2022-07-29T14:35:13.377Z,29.71
2022-07-29T14:37:42.319Z,29.70
2022-07-29T14:40:13.555Z,29.53
2022-07-29T14:42:42.664Z,29.36
2022-07-29T14:45:12.523Z,29.18
2022-07-29T14:47:41.588Z,28.94
2022-07-29T14:50:11.994Z,28.74
2022-07-29T14:52:40.965Z,28.21
2022-07-29T14:55:19.899Z,28.05
2022-07-29T14:57:50.892Z,27.82
2022-07-29T15:00:21.626Z,27.62
2022-07-29T15:03:02.040Z,27.42
2022-07-29T15:05:32.032Z,27.15
2022-07-29T15:08:01.515Z,27.03
2022-07-29T15:10:32.082Z,26.97
2022-07-29T15:13:01.072Z,26.94
2022-07-29T15:15:30.479Z,26.83
2022-07-29T15:17:59.426Z,26.78
2022-07-29T15:20:28.621Z,26.70
2022-07-29T15:22:58.178Z,26.53
2022-07-29T15:25:28.203Z,26.39
2022-07-29T15:28:01.742Z,26.15
2022-07-29T15:30:34.391Z,25.98
2022-07-29T15:33:09.074Z,25.82
2022-07-29T15:35:40.505Z,25.73
2022-07-29T15:38:10.447Z,25.62
2022-07-29T15:40:42.130Z,25.46
2022-07-29T15:43:12.706Z,25.32
2022-07-29T15:46:05.295Z,25.14
2022-07-29T15:48:34.407Z,25.02
2022-07-29T15:51:03.290Z,24.88
2022-07-29T15:53:32.497Z,24.73
2022-07-29T15:56:04.519Z,24.63
2022-07-29T15:58:34.765Z,24.52
2022-07-29T16:01:03.841Z,24.35
2022-07-29T16:03:33.500Z,24.21
2022-07-29T16:06:02.893Z,24.09
2022-07-29T16:08:32.125Z,23.99
2022-07-29T16:11:01.125Z,23.91
2022-07-29T16:13:30.335Z,23.77
2022-07-29T16:16:01.984Z,23.62
2022-07-29T16:18:32.370Z,23.55
2022-07-29T16:21:01.762Z,23.50
2022-07-29T16:23:30.619Z,23.39
2022-07-29T16:26:01.095Z,23.31
2022-07-29T16:28:31.387Z,23.18
2022-07-29T16:31:01.766Z,23.07
2022-07-29T16:33:54.220Z,22.96
2022-07-29T16:36:21.510Z,22.84
2022-07-29T16:38:51.011Z,22.73
2022-07-29T16:41:20.085Z,22.68
2022-07-29T16:43:53.354Z,22.61
2022-07-29T16:46:24.299Z,22.54
2022-07-29T16:48:55.769Z,22.49
2022-07-29T16:51:26.001Z,22.44
2022-07-29T16:53:54.912Z,22.39
2022-07-29T16:56:24.892Z,22.32
2022-07-29T16:58:54.245Z,22.26
2022-07-29T17:01:26.899Z,22.22
2022-07-29T17:04:10.462Z,22.18
2022-07-29T17:06:41.350Z,22.15
2022-07-29T17:09:14.927Z,22.09
2022-07-29T17:11:53.111Z,22.04
2022-07-29T17:14:41.373Z,21.97
2022-07-29T17:17:39.329Z,21.97
2022-07-29T17:20:17.592Z,21.95
2022-07-29T17:22:46.875Z,21.91
2022-07-29T17:25:20.335Z,21.86
2022-07-29T17:27:50.759Z,21.83
2022-07-29T17:30:20.265Z,21.79
2022-07-29T17:32:54.788Z,21.71
2022-07-29T17:35:42.448Z,21.67
2022-07-29T17:38:15.329Z,21.60
2022-07-29T17:40:56.910Z,21.55
2022-07-29T17:43:31.185Z,21.51
2022-07-29T17:46:03.805Z,21.48
2022-07-29T17:48:41.392Z,21.41
2022-07-29T17:51:20.811Z,21.41
2022-07-29T17:53:54.878Z,21.36
2022-07-29T17:56:29.703Z,21.33
2022-07-29T17:59:12.068Z,21.26
2022-07-29T18:01:41.466Z,21.19
2022-07-29T18:04:12.427Z,21.19
2022-07-29T18:06:41.455Z,21.11
2022-07-29T18:09:10.728Z,21.09
2022-07-29T18:11:39.596Z,21.03
2022-07-29T18:14:13.751Z,21.01
2022-07-29T18:16:53.284Z,20.96
2022-07-29T18:19:37.339Z,20.88
2022-07-29T18:22:07.434Z,20.85
2022-07-29T18:24:42.717Z,20.80
2022-07-29T18:27:24.460Z,20.72
2022-07-29T18:30:07.211Z,20.71
2022-07-29T18:32:37.858Z,20.63
2022-07-29T18:35:09.455Z,20.55
2022-07-29T18:38:00.814Z,20.51
2022-07-29T18:40:28.177Z,20.47
2022-07-29T18:42:58.832Z,20.45
2022-07-29T18:45:28.254Z,20.41
2022-07-29T18:48:04.653Z,20.39
2022-07-29T18:50:35.202Z,20.39
2022-07-29T18:53:05.747Z,20.31
2022-07-29T18:55:34.693Z,20.28
2022-07-29T18:58:03.735Z,20.24
2022-07-29T19:00:35.261Z,20.17
2022-07-29T19:03:04.982Z,20.14
2022-07-29T19:05:38.061Z,20.12
2022-07-29T19:08:07.669Z,20.04
2022-07-29T19:10:46.645Z,19.96
2022-07-29T19:13:16.167Z,19.90
2022-07-29T19:15:47.675Z,19.92
2022-07-29T19:18:16.912Z,19.87
2022-07-29T19:20:47.329Z,19.83
2022-07-29T19:23:17.247Z,19.84
2022-07-29T19:25:53.726Z,19.80
2022-07-29T19:28:49.758Z,19.83
2022-07-29T19:32:01.037Z,19.79
2022-07-29T19:42:48.149Z,19.63
2022-07-29T19:45:17.123Z,19.55
2022-07-29T19:47:47.868Z,19.53
2022-07-29T19:50:17.523Z,19.53
2022-07-29T19:52:47.585Z,19.52
2022-07-29T19:55:18.772Z,19.48
2022-07-29T19:57:48.608Z,19.51
2022-07-29T20:00:21.098Z,19.51
2022-07-29T20:02:50.650Z,19.52
2022-07-29T20:05:19.765Z,19.52
2022-07-29T20:07:51.287Z,19.51
2022-07-29T20:10:21.914Z,19.48
2022-07-29T20:12:51.267Z,19.43
2022-07-29T20:15:22.827Z,19.43
2022-07-29T20:17:57.385Z,19.43
2022-07-29T20:20:29.813Z,19.38
2022-07-29T20:22:59.238Z,19.36
2022-07-29T20:25:33.292Z,19.39
2022-07-29T20:28:03.363Z,19.40
2022-07-29T20:30:32.746Z,19.43
2022-07-29T20:33:01.835Z,19.43
2022-07-29T20:35:30.837Z,19.40
2022-07-29T20:38:00.424Z,19.40
2022-07-29T20:40:30.915Z,19.41
2022-07-29T20:42:59.938Z,19.39
2022-07-29T20:45:30.779Z,19.39
2022-07-29T20:48:00.031Z,19.40
2022-07-29T20:50:29.342Z,19.46
2022-07-29T20:52:58.368Z,19.41
2022-07-29T20:55:27.414Z,19.42
2022-07-29T20:58:02.380Z,19.39
2022-07-29T21:00:31.310Z,19.43
2022-07-29T21:03:01.250Z,19.42
2022-07-29T21:05:30.163Z,19.41
2022-07-29T21:07:59.587Z,19.40
2022-07-29T21:10:29.411Z,19.32
2022-07-29T21:12:59.604Z,19.35
2022-07-29T21:15:29.784Z,19.31
2022-07-29T21:18:02.875Z,19.27
2022-07-29T21:20:32.150Z,19.27
2022-07-29T21:23:02.958Z,19.26
2022-07-29T21:25:32.158Z,19.29
2022-07-29T21:28:19.990Z,19.21
2022-07-29T21:30:48.918Z,19.17
2022-07-29T21:33:17.859Z,19.18
2022-07-29T21:36:15.067Z,19.20
2022-07-29T21:38:36.575Z,19.15
2022-07-29T21:41:07.233Z,19.14
2022-07-29T21:43:37.608Z,19.14
2022-07-29T21:46:11.204Z,19.11
2022-07-29T21:48:44.382Z,19.11
2022-07-29T21:51:13.762Z,19.08
2022-07-29T21:53:42.835Z,19.05
2022-07-29T21:56:14.580Z,19.08
2022-07-29T21:58:45.814Z,19.05
2022-07-29T22:01:14.969Z,19.08
2022-07-29T22:03:44.133Z,19.06
2022-07-29T22:06:17.305Z,19.06
2022-07-29T22:08:48.086Z,19.01
2022-07-29T22:11:17.161Z,18.98
2022-07-29T22:13:50.521Z,18.96
2022-07-29T22:16:19.586Z,18.91
2022-07-29T22:18:48.877Z,18.95
2022-07-29T22:21:18.708Z,18.89
2022-07-29T22:23:47.757Z,18.91
2022-07-29T22:26:16.995Z,18.89
2022-07-29T22:28:46.308Z,18.83
2022-07-29T22:31:20.749Z,18.83
2022-07-29T22:33:51.790Z,18.83
2022-07-29T22:36:20.829Z,18.79
2022-07-29T22:38:52.237Z,18.81
2022-07-29T22:41:21.349Z,18.72
2022-07-29T22:43:52.845Z,18.65
2022-07-29T22:46:24.109Z,18.59
2022-07-29T22:48:53.345Z,18.62
2022-07-29T22:51:24.270Z,18.59
2022-07-29T22:53:54.008Z,18.53
2022-07-29T22:56:23.125Z,18.54
2022-07-29T22:58:53.301Z,18.50
2022-07-29T23:01:37.513Z,18.46
2022-07-29T23:04:10.415Z,18.41
2022-07-29T23:06:39.343Z,18.40
2022-07-29T23:09:08.233Z,18.35
2022-07-29T23:11:37.267Z,18.33
2022-07-29T23:14:06.626Z,18.30
2022-07-29T23:16:39.925Z,18.30
2022-07-29T23:19:09.041Z,18.27
2022-07-29T23:21:40.910Z,18.22
2022-07-29T23:24:12.626Z,18.21
2022-07-29T23:26:44.110Z,18.19
2022-07-29T23:29:13.453Z,18.16
2022-07-29T23:31:48.320Z,18.10
2022-07-29T23:34:17.509Z,18.10
2022-07-29T23:36:46.425Z,18.10
2022-07-29T23:39:15.561Z,18.08
2022-07-29T23:41:44.581Z,18.05
2022-07-29T23:44:13.454Z,18.02
2022-07-29T23:46:44.505Z,18.00
2022-07-29T23:49:14.087Z,17.98
2022-07-29T23:51:45.684Z,18.02
2022-07-29T23:54:14.906Z,18.00
2022-07-29T23:56:44.212Z,18.00
2022-07-29T23:59:15.619Z,17.98
